Time;durP1;ratioP1;P1;durP2;ratioP2;P2;SDS_P1;SDS_P2;PMS_P1;PMS_P2;Temp;Humidity;BMP_temperature;BMP_pressure;BME280_temperature;BME280_humidity;BME280_pressure;Samples;Min_cycle;Max_cycle;Signal;HPM_P1;HPM_P2
2023/10/04 00:00:51;;;;;;;4.85;2.05;;;13.60;99.90;;;;;;5085325;28;20100;-85
2023/10/04 00:03:18;;;;;;;3.17;1.75;;;13.60;99.90;;;;;;5092402;28;20070;-84
2023/10/04 00:05:44;;;;;;;3.30;1.80;;;13.50;99.90;;;;;;5081556;28;20031;-85
2023/10/04 00:08:09;;;;;;;2.90;1.80;;;13.50;99.90;;;;;;5067880;28;20036;-85
2023/10/04 00:10:36;;;;;;;3.72;1.70;;;13.50;99.90;;;;;;5069278;28;20566;-84
2023/10/04 00:13:02;;;;;;;2.78;1.60;;;13.40;99.90;;;;;;5069072;28;20031;-84
2023/10/04 00:15:29;;;;;;;4.70;1.77;;;13.40;99.90;;;;;;5069041;28;20519;-85
2023/10/04 00:17:55;;;;;;;4.13;1.90;;;13.40;99.90;;;;;;5068711;28;20028;-85
2023/10/04 00:20:22;;;;;;;5.20;2.15;;;13.30;99.90;;;;;;5069957;28;20021;-84
2023/10/04 00:22:48;;;;;;;4.25;2.10;;;13.30;99.90;;;;;;5069081;28;20077;-85
2023/10/04 00:25:21;;;;;;;3.97;2.30;;;13.20;99.90;;;;;;5069354;28;20113;-85
2023/10/04 00:27:49;;;;;;;7.20;1.73;;;13.20;99.90;;;;;;5070368;28;20027;-84
2023/10/04 00:30:15;;;;;;;3.70;1.90;;;13.10;99.90;;;;;;5070067;28;20029;-85
2023/10/04 00:32:46;;;;;;;4.75;2.17;;;13.00;99.90;;;;;;5071909;28;20037;-85
2023/10/04 00:35:19;;;;;;;4.32;2.10;;;13.00;99.90;;;;;;5073132;28;20028;-85
2023/10/04 00:37:47;;;;;;;4.13;2.00;;;13.00;99.90;;;;;;5072801;28;20078;-85
2023/10/04 00:40:19;;;;;;;3.50;1.77;;;13.00;99.90;;;;;;5074593;28;20028;-85
2023/10/04 00:42:49;;;;;;;4.38;2.20;;;12.90;99.90;;;;;;5079107;28;20036;-85
2023/10/04 00:45:22;;;;;;;5.00;1.80;;;12.90;99.90;;;;;;5071776;28;20085;-85
2023/10/04 00:47:51;;;;;;;3.75;1.60;;;12.80;99.90;;;;;;5071337;28;20038;-85
2023/10/04 00:50:22;;;;;;;6.15;1.90;;;12.80;99.90;;;;;;5072081;28;20024;-85
2023/10/04 00:52:54;;;;;;;3.25;2.00;;;12.80;99.90;;;;;;5072971;28;21912;-84
2023/10/04 00:55:21;;;;;;;4.20;2.03;;;12.70;99.90;;;;;;5069408;28;20422;-85
2023/10/04 00:57:49;;;;;;;4.05;2.20;;;12.70;99.90;;;;;;5071658;28;20505;-85
2023/10/04 01:00:17;;;;;;;5.28;2.22;;;12.60;99.90;;;;;;5072254;28;20040;-85
2023/10/04 01:02:43;;;;;;;7.13;2.20;;;12.60;99.90;;;;;;5071662;28;20025;-85
2023/10/04 01:05:09;;;;;;;4.78;2.00;;;12.60;99.90;;;;;;5072912;28;20116;-85
2023/10/04 01:07:38;;;;;;;4.20;2.10;;;12.50;99.90;;;;;;5077319;28;20383;-85
2023/10/04 01:10:06;;;;;;;4.65;2.20;;;12.50;99.90;;;;;;5075715;28;20037;-84
2023/10/04 01:12:32;;;;;;;4.78;1.98;;;12.50;99.90;;;;;;5073589;28;20150;-85
2023/10/04 01:15:12;;;;;;;4.50;2.05;;;12.40;99.90;;;;;;5073738;28;20063;-85
2023/10/04 01:17:37;;;;;;;3.55;2.00;;;12.40;99.90;;;;;;5075109;28;20036;-85
2023/10/04 01:20:09;;;;;;;4.32;2.00;;;12.30;99.90;;;;;;5074087;28;20033;-84
2023/10/04 01:22:35;;;;;;;6.65;1.83;;;12.30;99.90;;;;;;5073688;28;20139;-85
2023/10/04 01:25:01;;;;;;;4.28;2.40;;;12.20;99.90;;;;;;5073130;28;20021;-84
2023/10/04 01:27:27;;;;;;;4.13;2.00;;;12.20;99.90;;;;;;5074432;28;20713;-84
2023/10/04 01:29:52;;;;;;;5.75;2.22;;;12.20;99.90;;;;;;5073955;28;20131;-84
2023/10/04 01:32:22;;;;;;;5.25;2.42;;;12.20;99.90;;;;;;5075295;28;20100;-85
2023/10/04 01:34:47;;;;;;;5.45;2.08;;;12.10;99.90;;;;;;5072809;28;20051;-85
2023/10/04 01:37:13;;;;;;;5.35;2.45;;;12.10;99.90;;;;;;5072696;28;20024;-84
2023/10/04 01:39:44;;;;;;;5.45;2.85;;;12.00;99.90;;;;;;5073411;28;20024;-84
2023/10/04 01:42:11;;;;;;;4.78;1.98;;;12.00;99.90;;;;;;5072043;28;20024;-84
2023/10/04 01:44:37;;;;;;;4.22;1.92;;;12.00;99.90;;;;;;5070872;28;20036;-84
2023/10/04 01:47:03;;;;;;;5.60;2.50;;;11.90;99.90;;;;;;5071505;28;20028;-84
2023/10/04 01:49:28;;;;;;;4.70;1.90;;;11.90;99.90;;;;;;5074000;28;20506;-85
2023/10/04 01:51:54;;;;;;;6.15;2.60;;;11.90;99.90;;;;;;5074264;28;20095;-84
2023/10/04 01:54:19;;;;;;;4.95;2.30;;;11.80;99.90;;;;;;5071646;28;20479;-84
2023/10/04 01:56:45;;;;;;;6.07;2.40;;;11.80;99.90;;;;;;5073945;28;20032;-84
2023/10/04 01:59:13;;;;;;;4.00;1.90;;;11.80;99.90;;;;;;5073358;28;20504;-85
2023/10/04 02:01:40;;;;;;;3.53;1.85;;;11.80;99.90;;;;;;5071616;28;20035;-85
2023/10/04 02:04:06;;;;;;;6.47;2.60;;;11.80;99.90;;;;;;5072226;28;20056;-84
2023/10/04 02:06:33;;;;;;;5.00;2.15;;;11.70;99.90;;;;;;5071803;28;20047;-85
2023/10/04 02:09:00;;;;;;;3.75;2.20;;;11.70;99.90;;;;;;5071738;28;20044;-85
2023/10/04 02:11:26;;;;;;;4.97;2.10;;;11.50;99.90;;;;;;5072530;28;20036;-84
2023/10/04 02:13:52;;;;;;;4.50;2.10;;;11.50;99.90;;;;;;5073424;28;20040;-85
2023/10/04 02:16:21;;;;;;;4.45;2.20;;;11.50;99.90;;;;;;5071496;28;20041;-84
2023/10/04 02:18:51;;;;;;;5.28;2.30;;;11.50;99.90;;;;;;5070797;28;20047;-85
2023/10/04 02:21:18;;;;;;;3.60;1.98;;;11.40;99.90;;;;;;5073429;28;20050;-85
2023/10/04 02:23:45;;;;;;;3.92;2.40;;;11.40;99.90;;;;;;5071641;28;20849;-84
2023/10/04 02:26:10;;;;;;;6.35;2.17;;;11.30;99.90;;;;;;5073421;28;20032;-84
2023/10/04 02:28:36;;;;;;;3.33;1.70;;;11.30;99.90;;;;;;5073431;28;20043;-84
2023/10/04 02:31:02;;;;;;;8.68;2.25;;;11.20;99.90;;;;;;5074169;28;20032;-84
2023/10/04 02:33:32;;;;;;;6.50;2.55;;;11.20;99.90;;;;;;5072608;28;20048;-84
2023/10/04 02:36:00;;;;;;;7.57;2.20;;;11.20;99.90;;;;;;5074634;28;20024;-84
2023/10/04 02:38:26;;;;;;;3.87;2.17;;;11.20;99.90;;;;;;5073888;28;20044;-84
2023/10/04 02:40:53;;;;;;;5.85;2.25;;;11.10;99.90;;;;;;5073500;28;20029;-83
2023/10/04 02:43:20;;;;;;;6.07;1.88;;;11.10;99.90;;;;;;5073358;28;20036;-84
2023/10/04 02:45:49;;;;;;;6.50;2.28;;;11.00;99.90;;;;;;5074569;28;20028;-84
2023/10/04 02:48:15;;;;;;;4.22;2.30;;;11.00;99.90;;;;;;5076483;28;20032;-84
2023/10/04 02:50:42;;;;;;;4.97;2.25;;;11.00;99.90;;;;;;5076954;28;20032;-84
2023/10/04 02:53:09;;;;;;;5.22;2.15;;;11.00;99.90;;;;;;5079751;28;20025;-84
2023/10/04 02:55:38;;;;;;;4.50;2.17;;;10.90;99.90;;;;;;5078565;28;20630;-84
2023/10/04 02:58:06;;;;;;;5.28;2.28;;;11.00;99.90;;;;;;5093361;28;20025;-84
2023/10/04 03:00:31;;;;;;;4.57;2.13;;;10.90;99.90;;;;;;5094761;28;20092;-84
2023/10/04 03:02:57;;;;;;;5.63;1.90;;;10.90;99.90;;;;;;5078676;28;20067;-84
2023/10/04 03:05:23;;;;;;;7.78;2.40;;;10.90;99.90;;;;;;5069987;28;20032;-84
2023/10/04 03:07:50;;;;;;;4.93;2.35;;;10.90;99.90;;;;;;5072124;28;20770;-85
2023/10/04 03:10:27;;;;;;;4.93;2.55;;;10.90;99.90;;;;;;5072746;28;20038;-84
2023/10/04 03:12:56;;;;;;;6.53;2.50;;;10.80;99.90;;;;;;5070904;28;20036;-84
2023/10/04 03:15:23;;;;;;;3.67;2.15;;;10.80;99.90;;;;;;5068848;28;20086;-84
2023/10/04 03:17:53;;;;;;;4.23;2.50;;;10.80;99.90;;;;;;5069366;28;20588;-84
2023/10/04 03:20:20;;;;;;;4.47;2.40;;;10.80;99.90;;;;;;5069462;28;20032;-84
2023/10/04 03:22:55;;;;;;;8.43;2.40;;;10.80;99.90;;;;;;5068835;28;20032;-84
2023/10/04 03:25:26;;;;;;;4.00;2.25;;;10.80;99.90;;;;;;5070522;28;20032;-84
2023/10/04 03:27:53;;;;;;;4.88;2.22;;;10.80;99.90;;;;;;5072630;28;20038;-84
2023/10/04 03:30:20;;;;;;;4.00;2.13;;;10.70;99.90;;;;;;5072194;28;20050;-84
2023/10/04 03:32:56;;;;;;;6.70;2.70;;;10.70;99.90;;;;;;5072835;28;20051;-84
2023/10/04 03:35:26;;;;;;;5.18;2.50;;;10.60;99.90;;;;;;5070061;28;20058;-84
2023/10/04 03:37:58;;;;;;;6.57;2.40;;;10.60;99.90;;;;;;5069715;28;20487;-84
2023/10/04 03:40:24;;;;;;;3.93;2.27;;;10.60;99.90;;;;;;5074229;28;20031;-83
2023/10/04 03:42:50;;;;;;;4.37;2.13;;;10.50;99.90;;;;;;5073760;28;20107;-84
2023/10/04 03:45:22;;;;;;;8.57;2.20;;;10.50;99.90;;;;;;5073746;28;20411;-84
2023/10/04 03:47:50;;;;;;;4.20;2.40;;;10.40;99.90;;;;;;5071586;28;20032;-84
2023/10/04 03:50:17;;;;;;;4.73;2.10;;;10.40;99.90;;;;;;5072089;28;20107;-84
2023/10/04 03:52:43;;;;;;;6.17;2.67;;;10.30;99.90;;;;;;5071774;28;20103;-84
2023/10/04 03:55:10;;;;;;;6.75;2.80;;;10.30;99.90;;;;;;5067489;28;20020;-84
2023/10/04 03:57:42;;;;;;;8.10;3.10;;;10.30;99.90;;;;;;5072521;28;20029;-84
2023/10/04 04:00:17;;;;;;;5.57;2.42;;;10.20;99.90;;;;;;5069008;28;20131;-84
2023/10/04 04:02:43;;;;;;;5.72;2.58;;;10.20;99.90;;;;;;5068624;28;20200;-84
2023/10/04 04:05:14;;;;;;;4.87;2.53;;;10.20;99.90;;;;;;5072087;28;20721;-84
2023/10/04 04:07:41;;;;;;;6.57;2.60;;;10.20;99.90;;;;;;5069371;28;20024;-84
2023/10/04 04:10:07;;;;;;;7.80;2.83;;;10.10;99.90;;;;;;5074199;28;20024;-84
2023/10/04 04:12:37;;;;;;;10.73;2.97;;;10.10;99.90;;;;;;5074503;28;20032;-84
2023/10/04 04:15:03;;;;;;;5.60;3.00;;;10.10;99.90;;;;;;5074730;28;20036;-84
2023/10/04 04:17:29;;;;;;;6.03;2.60;;;10.10;99.90;;;;;;5073951;28;20037;-84
2023/10/04 04:19:55;;;;;;;7.60;3.50;;;10.10;99.90;;;;;;5073184;28;20029;-84
2023/10/04 04:22:23;;;;;;;6.03;3.67;;;10.10;99.90;;;;;;5073799;28;20050;-84
2023/10/04 04:24:52;;;;;;;5.63;3.50;;;10.00;99.90;;;;;;5073187;28;20055;-84
2023/10/04 04:27:22;;;;;;;7.37;4.13;;;10.00;99.90;;;;;;5073372;28;20174;-84
2023/10/04 04:29:52;;;;;;;7.67;3.27;;;10.00;99.90;;;;;;5070216;28;20024;-83
2023/10/04 04:32:26;;;;;;;9.73;2.50;;;9.90;99.90;;;;;;5072500;28;20036;-83
2023/10/04 04:34:55;;;;;;;5.77;2.70;;;9.90;99.90;;;;;;5071604;28;20058;-83
2023/10/04 04:37:23;;;;;;;6.83;2.70;;;9.80;99.90;;;;;;5072983;28;20035;-83
2023/10/04 04:39:50;;;;;;;4.27;2.20;;;9.80;99.90;;;;;;5073285;28;20073;-83
2023/10/04 04:42:30;;;;;;;8.63;3.80;;;9.70;99.90;;;;;;5073542;28;20033;-83
2023/10/04 04:44:56;;;;;;;7.97;4.00;;;9.80;99.90;;;;;;5071842;28;20025;-83
2023/10/04 04:47:22;;;;;;;6.27;3.57;;;9.70;99.90;;;;;;5071103;28;20115;-83
2023/10/04 04:49:48;;;;;;;7.60;4.17;;;9.70;99.90;;;;;;5071143;28;20024;-83
2023/10/04 04:52:14;;;;;;;8.87;4.07;;;9.70;99.90;;;;;;5069073;28;20039;-83
2023/10/04 04:54:40;;;;;;;6.83;3.80;;;9.60;99.90;;;;;;5072108;28;20044;-83
2023/10/04 04:57:07;;;;;;;8.17;4.77;;;9.70;99.90;;;;;;5071888;28;20505;-83
2023/10/04 04:59:33;;;;;;;9.93;4.00;;;9.60;99.90;;;;;;5069550;28;21633;-83
2023/10/04 05:02:00;;;;;;;7.27;4.27;;;9.60;99.90;;;;;;5073908;28;20146;-83
2023/10/04 05:04:27;;;;;;;7.90;4.37;;;9.60;99.90;;;;;;5073833;28;20039;-83
2023/10/04 05:06:53;;;;;;;9.17;4.10;;;9.70;99.90;;;;;;5073735;28;20169;-82
2023/10/04 05:09:18;;;;;;;10.23;4.67;;;9.70;99.90;;;;;;5074390;28;20066;-83
2023/10/04 05:11:45;;;;;;;8.10;4.90;;;9.70;99.90;;;;;;5073775;28;20123;-85
2023/10/04 05:14:11;;;;;;;8.23;4.60;;;9.70;99.90;;;;;;5071905;28;20141;-83
2023/10/04 05:16:37;;;;;;;8.37;3.87;;;9.70;99.90;;;;;;5070878;28;21356;-84
2023/10/04 05:19:09;;;;;;;8.27;3.80;;;9.70;99.90;;;;;;5068856;28;20035;-82
2023/10/04 05:21:36;;;;;;;8.40;3.63;;;9.70;99.90;;;;;;5072797;28;20055;-83
2023/10/04 05:24:03;;;;;;;6.30;3.60;;;9.70;99.90;;;;;;5071589;28;20039;-83
2023/10/04 05:26:29;;;;;;;8.50;3.87;;;9.70;99.90;;;;;;5070530;28;20479;-83
2023/10/04 05:28:55;;;;;;;5.67;3.53;;;9.70;99.90;;;;;;5069296;28;20074;-83
2023/10/04 05:31:21;;;;;;;6.67;3.43;;;9.70;99.90;;;;;;5069796;28;20094;-83
2023/10/04 05:33:46;;;;;;;9.03;4.13;;;9.70;99.90;;;;;;5070470;28;20041;-84
2023/10/04 05:36:12;;;;;;;7.03;3.30;;;9.70;99.90;;;;;;5072031;28;20548;-84
2023/10/04 05:38:37;;;;;;;7.50;4.50;;;9.70;99.90;;;;;;5072637;28;20032;-84
2023/10/04 05:41:03;;;;;;;8.50;3.63;;;9.70;99.90;;;;;;5073715;28;20117;-84
2023/10/04 05:43:29;;;;;;;7.83;3.50;;;9.70;99.90;;;;;;5075950;28;20044;-84
2023/10/04 05:45:55;;;;;;;6.80;3.33;;;9.70;99.90;;;;;;5076127;28;20025;-84
2023/10/04 05:48:21;;;;;;;6.37;3.70;;;9.70;99.90;;;;;;5077895;28;20035;-81
2023/10/04 05:50:50;;;;;;;6.80;3.57;;;9.70;99.90;;;;;;5078428;28;20144;-82
2023/10/04 05:53:19;;;;;;;10.03;3.60;;;9.70;99.90;;;;;;5088864;28;20868;-81
2023/10/04 05:55:46;;;;;;;5.20;2.80;;;9.80;99.90;;;;;;5092396;28;20083;-81
2023/10/04 05:58:12;;;;;;;5.70;2.63;;;9.80;99.90;;;;;;5087799;28;20090;-82
2023/10/04 06:00:40;;;;;;;8.37;3.00;;;9.80;99.90;;;;;;5075608;28;20479;-82
2023/10/04 06:03:07;;;;;;;7.03;3.07;;;9.80;99.90;;;;;;5070674;28;20032;-83
2023/10/04 06:05:35;;;;;;;5.87;2.60;;;9.80;99.90;;;;;;5071841;28;20035;-82
2023/10/04 06:08:12;;;;;;;7.77;3.00;;;9.90;99.90;;;;;;5073884;28;20059;-82
2023/10/04 06:10:38;;;;;;;6.27;2.90;;;9.90;99.90;;;;;;5073282;28;20483;-81
2023/10/04 06:13:11;;;;;;;5.63;2.80;;;9.90;99.90;;;;;;5071197;28;20067;-82
2023/10/04 06:15:39;;;;;;;7.00;2.90;;;10.00;99.90;;;;;;5069725;28;20036;-82
2023/10/04 06:18:07;;;;;;;6.90;3.10;;;10.00;99.90;;;;;;5070532;28;20036;-83
2023/10/04 06:22:59;;;;;;;7.03;3.13;;;10.10;99.90;;;;;;5071878;28;20033;-84
2023/10/04 06:25:29;;;;;;;8.20;2.97;;;10.20;99.90;;;;;;5074648;28;20036;-84
2023/10/04 06:27:56;;;;;;;6.60;3.70;;;10.20;99.90;;;;;;5070595;28;20044;-85
2023/10/04 06:30:26;;;;;;;13.10;3.50;;;10.30;99.90;;;;;;5069836;28;20028;-84
2023/10/04 06:32:53;;;;;;;6.97;2.90;;;10.30;99.90;;;;;;5070187;28;20119;-84
2023/10/04 06:35:23;;;;;;;6.67;2.77;;;10.40;99.90;;;;;;5059246;28;20041;-83
2023/10/04 06:37:52;;;;;;;8.90;2.93;;;10.50;99.90;;;;;;5058619;28;20300;-83
2023/10/04 06:40:22;;;;;;;5.63;2.40;;;10.50;99.90;;;;;;5062787;28;21371;-83
2023/10/04 06:42:49;;;;;;;5.47;2.70;;;10.60;99.90;;;;;;5058700;28;20032;-83
2023/10/04 06:45:16;;;;;;;5.97;2.93;;;10.70;99.90;;;;;;5056453;28;20117;-83
2023/10/04 06:47:47;;;;;;;7.23;2.97;;;10.70;99.90;;;;;;5058180;28;20028;-83
2023/10/04 06:50:18;;;;;;;13.10;2.67;;;10.80;99.90;;;;;;5061641;28;20084;-82
2023/10/04 06:52:51;;;;;;;10.43;2.80;;;10.90;99.90;;;;;;5059668;28;20039;-82
2023/10/04 06:55:19;;;;;;;6.30;2.80;;;11.00;99.90;;;;;;5057384;28;20542;-83
2023/10/04 06:57:45;;;;;;;5.72;2.95;;;11.10;99.90;;;;;;5057550;28;20566;-82
2023/10/04 07:00:19;;;;;;;6.70;3.10;;;11.20;99.90;;;;;;5059548;28;20032;-83
2023/10/04 07:02:47;;;;;;;5.55;3.30;;;11.40;99.90;;;;;;5060152;28;20039;-83
2023/10/04 07:05:17;;;;;;;6.57;3.05;;;11.40;99.90;;;;;;5054789;28;20028;-82
2023/10/04 07:07:47;;;;;;;5.30;2.58;;;11.60;99.90;;;;;;5059045;28;20079;-83
2023/10/04 07:10:15;;;;;;;7.40;2.90;;;11.70;99.90;;;;;;5058191;28;20031;-83
2023/10/04 07:12:43;;;;;;;6.93;2.53;;;11.80;99.90;;;;;;5060273;28;20032;-83
2023/10/04 07:15:10;;;;;;;5.70;3.10;;;12.00;99.90;;;;;;5063110;28;20035;-83
2023/10/04 07:17:38;;;;;;;14.40;2.85;;;12.10;99.90;;;;;;5062050;28;20043;-83
2023/10/04 07:20:07;;;;;;;5.35;2.58;;;12.30;99.90;;;;;;5062541;28;20017;-83
2023/10/04 07:22:33;;;;;;;6.55;2.95;;;12.40;99.90;;;;;;5060366;28;20032;-83
2023/10/04 07:24:59;;;;;;;7.10;2.80;;;12.60;99.90;;;;;;5056243;28;20043;-82
2023/10/04 07:27:26;;;;;;;9.15;2.60;;;12.70;99.90;;;;;;5059511;28;20036;-83
2023/10/04 07:29:53;;;;;;;5.57;2.33;;;12.90;99.90;;;;;;5059789;28;20448;-84
2023/10/04 07:32:19;;;;;;;7.72;3.17;;;13.10;99.90;;;;;;5056340;28;20043;-84
2023/10/04 07:34:45;;;;;;;6.15;2.45;;;13.20;99.90;;;;;;5055055;28;20043;-83
2023/10/04 07:37:10;;;;;;;7.93;2.63;;;13.40;99.90;;;;;;5058435;28;20028;-84
2023/10/04 07:39:36;;;;;;;4.88;2.53;;;13.60;99.90;;;;;;5058222;28;20149;-83
2023/10/04 07:42:04;;;;;;;8.55;2.72;;;13.70;99.90;;;;;;5058435;28;20028;-83
2023/10/04 07:44:32;;;;;;;6.20;2.60;;;13.80;99.90;;;;;;5056412;28;20031;-83
2023/10/04 07:47:01;;;;;;;9.48;2.85;;;14.00;99.90;;;;;;5053715;28;20857;-84
2023/10/04 07:49:28;;;;;;;6.25;2.65;;;14.10;99.90;;;;;;5055646;28;20029;-85
2023/10/04 07:51:55;;;;;;;6.80;2.50;;;14.30;99.90;;;;;;5058640;28;20029;-83
2023/10/04 07:54:21;;;;;;;4.93;2.58;;;14.50;99.90;;;;;;5058299;28;20028;-82
2023/10/04 07:56:48;;;;;;;5.13;2.22;;;14.60;99.90;;;;;;5054254;28;20083;-83
2023/10/04 07:59:17;;;;;;;4.63;2.30;;;14.80;99.90;;;;;;5058126;28;20036;-84
2023/10/04 08:01:42;;;;;;;5.35;2.72;;;14.90;99.90;;;;;;5057735;28;20786;-83
2023/10/04 08:04:11;;;;;;;4.45;2.40;;;14.90;99.90;;;;;;5056002;28;20545;-84
2023/10/04 08:06:39;;;;;;;7.97;2.47;;;15.10;99.90;;;;;;5053982;28;21561;-84
2023/10/04 08:09:05;;;;;;;4.80;2.28;;;15.10;99.90;;;;;;5057255;28;20472;-85
2023/10/04 08:11:34;;;;;;;7.15;2.45;;;15.10;99.90;;;;;;5058110;28;20856;-84
2023/10/04 08:14:01;;;;;;;7.88;2.60;;;15.10;99.90;;;;;;5060241;28;20086;-84
2023/10/04 08:16:27;;;;;;;4.35;2.40;;;15.10;99.90;;;;;;5055037;28;20780;-83
2023/10/04 08:18:56;;;;;;;5.57;2.35;;;15.20;99.90;;;;;;5062018;28;20033;-84
2023/10/04 08:21:23;;;;;;;5.95;2.17;;;15.30;99.90;;;;;;5059508;28;20047;-85
2023/10/04 08:23:49;;;;;;;6.82;2.35;;;15.30;99.90;;;;;;5058013;28;20105;-85
2023/10/04 08:26:15;;;;;;;5.90;2.03;;;15.30;99.90;;;;;;5054783;28;20037;-85
2023/10/04 08:28:42;;;;;;;4.20;2.30;;;15.30;99.90;;;;;;5058273;28;20095;-85
2023/10/04 08:31:14;;;;;;;3.40;2.13;;;15.30;99.90;;;;;;5059780;28;20029;-85
2023/10/04 08:33:43;;;;;;;6.78;2.90;;;15.30;99.90;;;;;;5059879;28;21349;-85
2023/10/04 08:36:14;;;;;;;5.82;2.40;;;15.50;99.90;;;;;;5057302;28;20031;-86
2023/10/04 08:38:41;;;;;;;6.07;2.40;;;15.50;99.90;;;;;;5060103;28;20058;-85
2023/10/04 08:41:07;;;;;;;6.93;2.88;;;15.60;99.90;;;;;;5063645;28;20111;-86
2023/10/04 08:43:32;;;;;;;4.43;2.10;;;15.60;99.90;;;;;;5063287;28;20081;-86
2023/10/04 08:45:58;;;;;;;4.38;2.13;;;15.80;99.90;;;;;;5062783;28;20049;-85
2023/10/04 08:48:29;;;;;;;5.60;2.58;;;15.90;99.90;;;;;;5065100;28;20039;-85
2023/10/04 08:51:13;;;;;;;5.75;2.35;;;15.90;99.90;;;;;;5078067;28;20884;-86
2023/10/04 08:54:02;;;;;;;6.10;2.88;;;16.00;99.90;;;;;;5083987;28;20029;-85
2023/10/04 08:56:33;;;;;;;7.22;2.45;;;15.90;99.90;;;;;;5067727;28;20075;-86
2023/10/04 08:58:59;;;;;;;4.63;2.55;;;15.90;99.90;;;;;;5062985;28;20044;-86
2023/10/04 09:01:26;;;;;;;5.68;2.58;;;16.00;99.90;;;;;;5061052;28;20040;-87
2023/10/04 09:03:53;;;;;;;4.90;2.53;;;16.10;99.90;;;;;;5061376;28;20303;-86
2023/10/04 09:06:18;;;;;;;7.13;2.25;;;16.30;99.90;;;;;;5059261;28;20037;-86
2023/10/04 09:08:44;;;;;;;6.85;2.50;;;16.40;99.90;;;;;;5062617;28;20036;-86
2023/10/04 09:11:15;;;;;;;6.47;2.53;;;16.50;99.90;;;;;;5059289;28;20043;-87
2023/10/04 09:13:49;;;;;;;5.35;2.80;;;16.50;99.90;;;;;;5062971;28;20748;-86
2023/10/04 09:16:29;;;;;;;12.10;2.20;;;16.30;99.90;;;;;;5055909;28;20041;-86
2023/10/04 09:19:09;;;;;;;5.47;2.63;;;16.20;99.90;;;;;;5060127;28;21049;-85
2023/10/04 09:21:38;;;;;;;6.38;2.53;;;16.10;99.90;;;;;;5058628;28;20795;-86
2023/10/04 09:24:09;;;;;;;5.93;2.10;;;16.00;99.90;;;;;;5058319;28;20028;-87
2023/10/04 09:26:52;;;;;;;6.53;2.45;;;16.20;99.90;;;;;;5055832;28;20360;-85
2023/10/04 09:29:38;;;;;;;6.50;2.60;;;16.20;99.90;;;;;;5059863;28;20039;-85
2023/10/04 09:32:05;;;;;;;5.97;2.28;;;16.20;99.90;;;;;;5060691;28;20037;-85
2023/10/04 09:34:33;;;;;;;5.13;2.38;;;16.30;99.90;;;;;;5061145;28;20039;-86
2023/10/04 09:36:59;;;;;;;8.27;2.70;;;16.40;99.90;;;;;;5061272;28;20047;-85
2023/10/04 09:39:31;;;;;;;4.85;2.90;;;16.50;99.90;;;;;;5063726;28;20039;-85
2023/10/04 09:41:59;;;;;;;7.18;2.72;;;16.50;99.90;;;;;;5065205;28;20032;-86
2023/10/04 09:44:30;;;;;;;5.10;2.30;;;16.60;99.90;;;;;;5061742;28;20024;-86
2023/10/04 09:47:02;;;;;;;5.18;2.30;;;16.50;99.90;;;;;;5057238;28;20063;-86
2023/10/04 09:49:31;;;;;;;7.25;2.67;;;16.40;99.90;;;;;;5060248;28;20029;-86
2023/10/04 09:52:00;;;;;;;5.05;2.50;;;16.40;99.90;;;;;;5065420;28;20035;-86
2023/10/04 09:54:27;;;;;;;10.23;2.88;;;16.40;99.90;;;;;;5065317;28;20109;-86
2023/10/04 09:56:54;;;;;;;5.60;2.63;;;16.60;99.90;;;;;;5066814;28;20453;-79
2023/10/04 09:59:23;;;;;;;5.20;2.40;;;16.70;99.90;;;;;;5073569;28;20036;-80
2023/10/04 10:01:57;;;;;;;6.55;3.00;;;16.90;99.90;;;;;;5075838;28;20387;-79
2023/10/04 10:04:25;;;;;;;8.82;2.90;;;16.90;99.90;;;;;;5072627;28;20048;-80
2023/10/04 10:07:14;;;;;;;5.65;2.55;;;17.00;99.90;;;;;;5073955;28;20857;-80
2023/10/04 10:10:16;;;;;;;6.18;2.42;;;17.20;99.90;;;;;;5075201;28;20032;-79
2023/10/04 10:12:43;;;;;;;7.45;2.75;;;17.30;99.90;;;;;;5075069;28;20035;-80
2023/10/04 10:15:11;;;;;;;6.47;2.38;;;17.40;99.90;;;;;;5074364;28;20063;-81
2023/10/04 10:17:38;;;;;;;5.10;2.40;;;17.50;99.90;;;;;;5075433;28;20032;-79
2023/10/04 10:20:09;;;;;;;8.95;2.63;;;17.70;99.90;;;;;;5072657;28;20028;-79
2023/10/04 10:22:54;;;;;;;5.13;2.53;;;18.00;99.90;;;;;;5073543;28;20036;-79
2023/10/04 10:25:22;;;;;;;5.35;2.47;;;18.10;99.90;;;;;;5072087;28;20059;-80
2023/10/04 10:27:47;;;;;;;5.47;2.28;;;18.20;99.90;;;;;;5072523;28;20102;-80
2023/10/04 10:30:16;;;;;;;5.75;2.67;;;18.40;99.90;;;;;;5073332;28;20813;-80
2023/10/04 10:32:59;;;;;;;6.55;2.53;;;18.60;99.90;;;;;;5072879;28;20028;-80
2023/10/04 10:35:49;;;;;;;7.03;2.30;;;18.70;99.90;;;;;;5065533;28;20030;-80
2023/10/04 10:38:43;;;;;;;5.18;2.58;;;18.80;99.90;;;;;;5070846;28;20024;-80
2023/10/04 10:41:31;;;;;;;6.90;2.28;;;19.20;99.90;;;;;;5073199;28;20032;-81
2023/10/04 10:44:19;;;;;;;4.05;2.28;;;19.30;99.90;;;;;;5067304;28;20044;-81
2023/10/04 10:46:54;;;;;;;4.80;2.20;;;19.50;99.90;;;;;;5069260;28;20033;-80
2023/10/04 10:49:50;;;;;;;5.13;2.35;;;19.40;99.90;;;;;;5068825;28;20036;-76
2023/10/04 10:52:34;;;;;;;5.20;2.47;;;19.30;99.90;;;;;;5066272;28;20143;-80
2023/10/04 10:55:01;;;;;;;8.00;2.33;;;19.30;99.90;;;;;;5068333;28;20032;-81
2023/10/04 10:57:32;;;;;;;7.68;2.35;;;19.40;99.90;;;;;;5069238;28;20961;-81
2023/10/04 11:00:03;;;;;;;4.78;2.30;;;19.40;99.90;;;;;;5065591;28;20460;-80
2023/10/04 11:02:29;;;;;;;5.35;2.40;;;19.60;99.90;;;;;;5066384;28;20033;-80
2023/10/04 11:04:55;;;;;;;4.10;2.15;;;19.60;99.90;;;;;;5065622;28;20425;-79
2023/10/04 11:07:22;;;;;;;7.43;2.80;;;19.70;99.90;;;;;;5071661;28;20025;-86
2023/10/04 11:09:51;;;;;;;7.60;2.08;;;19.70;99.90;;;;;;5068192;28;20021;-85
2023/10/04 11:12:18;;;;;;;3.78;2.40;;;19.70;99.90;;;;;;5061852;28;20039;-86
2023/10/04 11:14:44;;;;;;;6.85;2.10;;;19.70;99.90;;;;;;5062212;28;20039;-86
2023/10/04 11:17:16;;;;;;;4.95;2.50;;;19.70;99.90;;;;;;5064149;28;20487;-86
2023/10/04 11:19:42;;;;;;;6.32;2.40;;;19.70;99.90;;;;;;5062082;28;20158;-87
2023/10/04 11:22:10;;;;;;;4.00;2.50;;;19.50;99.90;;;;;;5062929;28;20021;-86
2023/10/04 11:24:36;;;;;;;5.90;2.58;;;19.40;99.90;;;;;;5063954;28;20032;-86
2023/10/04 11:27:03;;;;;;;6.45;2.28;;;19.40;99.90;;;;;;5063520;28;20491;-86
2023/10/04 11:29:30;;;;;;;7.18;2.58;;;19.50;99.90;;;;;;5061686;28;20102;-86
2023/10/04 11:31:57;;;;;;;5.10;2.50;;;19.60;99.90;;;;;;5064271;28;20035;-86
2023/10/04 11:34:23;;;;;;;6.63;2.40;;;20.00;99.90;;;;;;5062617;28;20040;-86
2023/10/04 11:36:49;;;;;;;4.32;2.20;;;20.20;99.90;;;;;;5067454;28;20101;-85
2023/10/04 11:39:18;;;;;;;3.80;2.17;;;20.20;99.90;;;;;;5066152;28;20036;-86
2023/10/04 11:44:33;;;;;;;5.22;2.08;;;20.70;99.90;;;;;;5063176;28;20440;-85
2023/10/04 11:47:01;;;;;;;4.30;2.00;;;20.70;99.90;;;;;;5047566;28;20029;-85
2023/10/04 11:49:28;;;;;;;4.35;1.90;;;20.70;99.90;;;;;;5062091;28;20047;-84
2023/10/04 11:51:58;;;;;;;3.65;2.00;;;20.60;99.90;;;;;;5066163;28;20124;-86
2023/10/04 11:54:26;;;;;;;3.95;2.13;;;20.50;99.90;;;;;;5048009;28;20072;-86
2023/10/04 11:56:52;;;;;;;6.55;2.15;;;20.40;99.90;;;;;;5039712;28;20033;-86
2023/10/04 11:59:28;;;;;;;6.00;2.45;;;20.40;99.90;;;;;;5040364;28;20091;-85
2023/10/04 12:01:55;;;;;;;3.33;2.03;;;20.20;99.90;;;;;;5039514;28;20021;-86
2023/10/04 12:04:20;;;;;;;5.43;2.03;;;20.10;99.90;;;;;;5038653;28;20045;-85
2023/10/04 12:07:00;;;;;;;4.05;2.25;;;19.90;99.90;;;;;;5039040;28;20052;-85
2023/10/04 12:09:27;;;;;;;4.20;2.13;;;19.30;99.90;;;;;;5038075;28;20553;-85
2023/10/04 12:11:54;;;;;;;6.78;2.10;;;19.20;99.90;;;;;;5039006;28;20480;-86
2023/10/04 12:14:20;;;;;;;5.75;2.20;;;19.30;99.90;;;;;;5038121;28;20039;-86
2023/10/04 12:16:47;;;;;;;5.63;2.75;;;19.50;99.90;;;;;;5038836;28;20438;-87
2023/10/04 12:19:14;;;;;;;5.50;2.20;;;19.80;99.90;;;;;;5038684;28;20025;-86
2023/10/04 12:21:40;;;;;;;6.57;2.45;;;20.20;99.90;;;;;;5038499;28;20057;-86
2023/10/04 12:24:07;;;;;;;6.55;2.38;;;20.30;99.90;;;;;;5038255;28;20170;-85
2023/10/04 12:26:33;;;;;;;5.20;2.58;;;20.60;99.90;;;;;;5038589;28;20091;-85
2023/10/04 12:28:59;;;;;;;4.65;2.38;;;20.70;99.90;;;;;;5038456;28;20111;-86
2023/10/04 12:31:25;;;;;;;4.57;2.25;;;20.40;99.90;;;;;;5038767;28;20480;-84
2023/10/04 12:33:52;;;;;;;4.07;2.30;;;20.30;99.90;;;;;;5038044;28;20480;-86
2023/10/04 12:36:18;;;;;;;5.55;2.60;;;20.10;99.90;;;;;;5038059;28;20118;-86
2023/10/04 12:38:46;;;;;;;3.40;2.03;;;19.80;99.90;;;;;;5038300;28;20602;-84
2023/10/04 12:41:11;;;;;;;4.72;2.45;;;19.80;99.90;;;;;;5039231;28;20118;-86
2023/10/04 12:43:37;;;;;;;6.40;2.67;;;19.50;99.90;;;;;;5038548;28;20483;-85
2023/10/04 12:46:03;;;;;;;4.47;2.30;;;19.20;99.90;;;;;;5039900;28;20041;-84
2023/10/04 12:48:28;;;;;;;5.10;2.30;;;18.90;99.90;;;;;;5038617;28;20087;-85
2023/10/04 12:50:55;;;;;;;6.28;2.00;;;18.80;99.90;;;;;;5042179;28;20091;-86
2023/10/04 12:53:21;;;;;;;4.38;2.05;;;18.70;99.90;;;;;;5046511;28;20041;-85
2023/10/04 12:55:48;;;;;;;4.38;1.92;;;18.60;99.90;;;;;;5028802;28;20036;-85
2023/10/04 12:58:14;;;;;;;4.07;2.30;;;18.50;99.90;;;;;;5028329;28;20051;-85
2023/10/04 13:00:41;;;;;;;5.13;2.13;;;18.60;99.90;;;;;;5025128;28;21129;-86